Weather observations for the past three days for
Fernandina Beach Municipal Airport
Imperial (Metric)
Date Time (edt) Wind (mph) Vis. (mi.) Weather Sky Cond. Temperature (ºF) Relative Humidity Wind Chill (°F) Heat Index (°F) Pressure Precipitation (in)
Air Dwpt 6 hour altimeter (in) sea level (mb) 1 hr 3 hr 6 hr
Max. Min.
05 20:35 SE 10 10.00 Fair CLR 71.6 57.2 61% 30.01 0.0
05 20:15 SE 10 10.00 Fair CLR 71.6 57.2 61% 30.01 0.0
05 19:55 SE 9 10.00 Fair CLR 71.6 57.2 61% 30 0.0
05 19:35 SE 10 10.00 Fair CLR 73.4 57.2 57% 30.01 0.0
05 19:15 SE 13 10.00 Fair CLR 73.4 59 61% 30 0.0
05 18:55 SE 12 10.00 Fair CLR 73.4 59 61% 30 0.0
05 18:35 SE 12 10.00 Fair CLR 75.2 59 57% 78 30.01 0.0
05 18:15 SE 13 G 18 7.00 Fair CLR 75.2 59 57% 78 30 0.0
05 17:55 SE 12 G 17 10.00 Fair CLR 75.2 59 57% 78 30.01 0.0
05 17:35 SE 12 10.00 Fair CLR 77 59 54% 79 30.01 0.0
05 17:15 SE 12 10.00 Fair CLR 77 59 54% 79 30.01 0.0
05 16:55 SE 13 10.00 Fair CLR 77 59 54% 79 30.01 0.0
05 16:35 SE 12 10.00 Fair CLR 75.2 57.2 54% 78 30.02 0.0
05 16:15 SE 14 10.00 Fair CLR 77 57.2 51% 79 30.03 0.0
05 15:55 SE 13 G 17 10.00 Fair CLR 77 57.2 51% 79 30.03 0.0
05 15:35 SE 14 10.00 Fair CLR 77 55.4 47% 79 30.03 0.0
05 15:15 E 15 7.00 Fair CLR 77 59 54% 79 30.04 0.0
05 14:55 SE 13 10.00 Fair CLR 77 59 54% 79 30.04 0.0
05 14:35 SE 14 10.00 Fair CLR 77 57.2 51% 79 30.05 0.0
05 14:15 SE 12 10.00 Fair CLR 77 59 54% 79 30.05 0.0
05 13:55 SE 14 5.00 Fair with Haze CLR 77 59 54% 79 30.06 0.0
05 13:35 SE 13 10.00 Fair CLR 77 59 54% 79 30.06 0.0
05 13:15 SE 12 10.00 Fair CLR 75.2 57.2 54% 78 30.06 0.0
05 12:55 SE 12 10.00 Fair CLR 77 59 54% 79 30.07 0.0
05 12:35 SE 10 10.00 Fair CLR 77 59 54% 79 30.07 0.0
05 12:15 SE 10 10.00 Fair CLR 75.2 59 57% 78 30.07 0.0
05 11:55 E 10 10.00 Fair CLR 77 59 54% 79 30.07 0.0
05 11:15 SE 8 10.00 Fair CLR 77 57.2 51% 79 30.07 0.0
05 10:55 SE 10 10.00 Fair CLR 75.2 59 57% 78 30.07 0.0
05 10:35 SE 10 10.00 Fair CLR 75.2 59 57% 78 30.07 0.0
05 10:15 SE 8 10.00 Fair CLR 75.2 59 57% 78 30.06 0.0
05 09:55 S 8 10.00 Fair CLR 75.2 57.2 54% 78 30.07 0.0
05 09:35 SE 8 10.00 Fair CLR 75.2 57.2 54% 78 30.06 0.0
05 09:15 SE 10 10.00 Fair CLR 73.4 57.2 57% 30.05 0.0
05 08:55 SE 9 10.00 Fair CLR 73.4 59 61% 30.05 0.0
05 08:35 SE 7 10.00 Fair CLR 73.4 59 61% 30.05 0.0
05 08:15 Calm 10.00 Fair CLR 69.8 60.8 73% 30.04 0.0
05 07:55 Calm 10.00 Fair CLR 66.2 59 78% 30.04 0.0
05 07:35 Calm 10.00 Fair CLR 62.6 57.2 83% 30.04 0.0
05 07:15 Calm 10.00 Fair CLR 60.8 55.4 83% 30.03 0.0
05 06:55 Calm 10.00 Fair CLR 59 55.4 88% 30.02 0.0
05 06:35 Calm 10.00 Fair CLR 59 53.6 82% 30.02 0.0
05 06:15 Calm 10.00 Fair CLR 59 53.6 82% 30.02 0.0
05 05:55 Calm 10.00 Fair CLR 59 53.6 82% 30.01 0.0
05 05:35 Calm 10.00 Fair CLR 60.8 53.6 77% 30.01 0.0
05 05:15 Calm 10.00 Fair CLR 60.8 53.6 77% 30 0.0
05 04:55 Calm 10.00 Fair CLR 62.6 53.6 73% 30 0.0
05 04:35 Calm 10.00 Fair CLR 62.6 53.6 73% 30 0.0
05 04:15 Calm 10.00 Fair CLR 60.8 53.6 77% 29.99 0.0
05 03:55 Calm 10.00 Fair CLR 64.4 55.4 73% 30 0.0
05 03:35 Calm 10.00 Fair CLR 64.4 53.6 68% 30 0.0
05 03:15 Calm 10.00 Fair CLR 62.6 53.6 73% 30.01 0.0
05 02:55 S 3 10.00 Fair CLR 64.4 53.6 68% 30.01 0.0
05 02:35 Calm 10.00 Fair CLR 62.6 53.6 73% 30.02 0.0
05 02:15 S 5 10.00 Fair CLR 66.2 53.6 64% 30.03 0.0
05 01:55 SE 3 10.00 Fair CLR 66.2 53.6 64% 30.03 0.0
05 01:35 SE 6 10.00 Fair CLR 66.2 53.6 64% 30.04 0.0
05 01:15 SE 7 10.00 Fair CLR 68 53.6 60% 30.04 0.0
05 00:55 SE 8 10.00 Fair CLR 68 53.6 60% 30.05 0.0
05 00:35 SE 9 10.00 Fair CLR 69.8 53.6 57% 30.05 0.0
05 00:15 SE 9 10.00 Fair CLR 69.8 53.6 57% 30.05 0.0
04 23:55 SE 8 10.00 Fair CLR 69.8 53.6 57% 30.05 0.0
04 23:35 SE 12 10.00 Fair CLR 69.8 53.6 57% 30.05 0.0
04 23:15 SE 12 10.00 Fair CLR 69.8 53.6 57% 30.05 0.0
04 22:55 SE 10 10.00 Fair CLR 69.8 53.6 57% 30.05 0.0
04 22:35 SE 12 10.00 Fair CLR 69.8 55.4 60% 30.05 0.0
04 22:15 SE 13 10.00 Fair CLR 69.8 53.6 57% 30.05 0.0
04 21:55 SE 9 10.00 Fair CLR 69.8 53.6 57% 30.05 0.0
04 21:35 SE 10 10.00 Fair CLR 69.8 53.6 57% 30.04 0.0
04 21:15 SE 9 10.00 Fair CLR 69.8 55.4 60% 30.04 0.0
04 20:55 SE 9 10.00 Fair CLR 69.8 55.4 60% 30.04 0.0
04 20:35 SE 8 10.00 Fair CLR 69.8 55.4 60% 30.04 0.0
04 20:15 SE 9 10.00 Fair CLR 69.8 55.4 60% 30.04 0.0
04 19:55 SE 9 10.00 Fair CLR 69.8 55.4 60% 30.03 0.0
04 19:35 SE 10 10.00 Fair CLR 71.6 55.4 57% 30.03 0.0
04 19:15 SE 12 10.00 Fair CLR 71.6 55.4 57% 30.03 0.0
04 18:55 SE 12 10.00 Partly Cloudy SCT041 SCT048 71.6 55.4 57% 30.03 0.0
04 18:15 E 10 10.00 Fair CLR 73.4 55.4 53% 30.03 0.0
04 17:55 E 12 10.00 Fair CLR 73.4 55.4 53% 30.03 0.0
04 17:35 E 10 10.00 Fair CLR 75.2 53.6 47% 78 30.03 0.0
04 17:15 E 12 10.00 Fair CLR 73.4 53.6 50% 30.04 0.0
04 16:55 E 12 10.00 Fair CLR 75.2 53.6 47% 78 30.04 0.0
04 16:35 E 12 10.00 Fair CLR 75.2 51.8 44% 78 30.04 0.0
04 15:55 E 10 10.00 Fair CLR 75.2 51.8 44% 78 30.05 0.0
04 15:35 E 12 10.00 Fair CLR 75.2 50 41% 78 30.06 0.0
04 15:15 E 10 10.00 Fair CLR 75.2 50 41% 78 30.06 0.0
04 14:55 SE 8 10.00 Fair CLR 75.2 50 41% 78 30.07 0.0
04 14:35 E 9 10.00 Fair CLR 75.2 48.2 39% 77 30.08 0.0
04 14:15 E 9 10.00 Fair CLR 75.2 48.2 39% 77 30.08 0.0
04 13:55 E 9 10.00 Fair CLR 75.2 46.4 36% 77 30.09 0.0
04 13:35 E 8 10.00 Fair CLR 75.2 46.4 36% 77 30.09 0.0
04 13:15 E 10 10.00 Fair CLR 75.2 46.4 36% 77 30.09 0.0
04 12:55 E 10 10.00 Fair CLR 75.2 44.6 34% 77 30.09 0.0
04 12:35 E 10 10.00 Fair CLR 75.2 46.4 36% 77 30.1 0.0
04 12:15 E 8 G 16 10.00 Fair CLR 75.2 46.4 36% 77 30.1 0.0
04 11:55 E 12 10.00 Fair CLR 75.2 46.4 36% 77 30.1 0.0
04 11:35 E 13 7.00 Fair CLR 73.4 44.6 36% 30.1 0.0
04 11:15 E 10 10.00 Fair CLR 75.2 44.6 34% 77 30.1 0.0
04 10:55 E 8 10.00 Fair CLR 73.4 44.6 36% 30.1 0.0
04 10:35 E 6 10.00 Fair CLR 75.2 44.6 34% 77 30.1 0.0
04 10:15 E 8 10.00 Fair CLR 73.4 44.6 36% 30.1 0.0
04 09:55 E 10 10.00 Partly Cloudy SCT055 73.4 46.4 38% 30.1 0.0
04 09:35 NE 7 10.00 Partly Cloudy SCT055 73.4 48.2 41% 30.1 0.0
04 09:15 N 6 10.00 Fair CLR 71.6 55.4 57% 30.09 0.0
04 08:55 Calm 10.00 Fair CLR 69.8 57.2 64% 30.09 0.0
04 08:35 Calm 10.00 Fair CLR 68 59 73% 30.09 0.0
04 08:15 Calm 10.00 Fair CLR 64.4 59 83% 30.09 0.0
04 07:55 Calm 10.00 Fair CLR 60.8 59 94% 30.08 0.0
04 07:35 Calm 10.00 Fair CLR 57.2 55.4 94% 30.08 0.0
04 07:15 Calm 10.00 Fair CLR 55.4 53.6 94% 30.07 0.0
04 06:55 Calm 10.00 Fair CLR 55.4 53.6 94% 30.07 0.0
04 06:35 Calm 7.00 Fog/Mist CLR 55.4 53.6 94% 30.07 0.0
04 06:15 Calm 0.25 Fog VV002 55.4 53.6 94% 30.06 0.0
04 05:55 Calm 10.00 Fair CLR 55.4 53.6 94% 30.07 0.0
04 05:35 Calm 10.00 Fair CLR 55.4 53.6 94% 30.06 0.0
04 05:15 Calm 10.00 Fair CLR 57.2 51.8 82% 30.07 0.0
04 04:55 Calm 10.00 Fair CLR 55.4 51.8 88% 30.06 0.0
04 04:35 Calm 10.00 Fair CLR 55.4 51.8 88% 30.06 0.0
04 04:15 Calm 10.00 Fair CLR 55.4 51.8 88% 30.07 0.0
04 03:55 Calm 10.00 Fair CLR 57.2 53.6 88% 30.07 0.0
04 03:35 Calm 10.00 Fair CLR 57.2 53.6 88% 30.07 0.0
04 03:15 Calm 10.00 Fair CLR 59 53.6 82% 30.07 0.0
04 02:55 Calm 10.00 Fair CLR 59 53.6 82% 30.08 0.0
04 02:35 Calm 10.00 Fair CLR 60.8 53.6 77% 30.08 0.0
04 02:15 Calm 10.00 Fair CLR 60.8 53.6 77% 30.08 0.0
04 01:55 Calm 10.00 Fair CLR 62.6 53.6 73% 30.09 0.0
04 01:35 SE 5 10.00 Fair CLR 66.2 55.4 68% 30.1 0.0
04 01:15 SE 5 10.00 Fair CLR 66.2 55.4 68% 30.1 0.0
04 00:55 SE 7 10.00 Fair CLR 66.2 55.4 68% 30.1 0.0
04 00:35 SE 7 10.00 Fair CLR 66.2 55.4 68% 30.1 0.0
04 00:15 SE 7 10.00 Fair CLR 66.2 55.4 68% 30.1 0.0
03 23:55 SE 7 10.00 Fair CLR 66.2 55.4 68% 30.1 0.0
03 23:35 SE 7 10.00 Fair CLR 66.2 55.4 68% 30.1 0.0
03 23:15 SE 8 10.00 Fair CLR 66.2 55.4 68% 30.1 0.0
03 22:55 SE 8 10.00 Fair CLR 66.2 55.4 68% 30.11 0.0
03 22:35 E 9 10.00 Fair CLR 66.2 55.4 68% 30.1 0.0
03 22:15 E 7 10.00 Fair CLR 66.2 55.4 68% 30.1 0.0
03 21:55 E 9 10.00 Fair CLR 66.2 53.6 64% 30.09 0.0
03 21:35 E 10 10.00 Fair CLR 66.2 53.6 64% 30.08 0.0
03 21:15 E 9 10.00 Fair CLR 66.2 53.6 64% 30.07 0.0
03 20:55 E 8 10.00 Fair CLR 66.2 53.6 64% 30.07 0.0
03 20:35 E 9 10.00 Fair CLR 66.2 51.8 60% 30.07 0.0
03 20:15 E 8 10.00 Fair CLR 66.2 51.8 60% 30.07 0.0
03 19:55 E 7 10.00 Fair CLR 66.2 51.8 60% 30.07 0.0
03 19:35 E 7 10.00 Fair CLR 68 51.8 56% 30.07 0.0
03 19:15 E 9 10.00 Fair CLR 68 51.8 56% 30.07 0.0
03 18:55 E 6 10.00 Fair CLR 68 50 53% 30.07 0.0
03 18:35 E 8 10.00 Fair CLR 68 50 53% 30.07 0.0
03 18:15 E 9 10.00 Fair CLR 69.8 50 50% 30.07 0.0
03 17:55 E 9 10.00 Fair CLR 69.8 50 50% 30.07 0.0
03 17:35 E 10 10.00 Fair CLR 71.6 51.8 50% 30.07 0.0
03 17:15 E 12 10.00 Fair CLR 69.8 51.8 53% 30.07 0.0
03 16:55 E 10 10.00 Fair CLR 69.8 51.8 53% 30.07 0.0
03 16:35 E 12 10.00 Fair CLR 69.8 51.8 53% 30.07 0.0
03 16:15 E 12 10.00 Fair CLR 71.6 51.8 50% 30.08 0.0
03 15:55 E 14 10.00 Fair CLR 69.8 51.8 53% 30.09 0.0
03 15:35 E 10 10.00 Fair CLR 71.6 53.6 53% 30.1 0.0
03 15:15 E 14 10.00 Fair CLR 71.6 53.6 53% 30.11 0.0
03 14:55 NE 12 G 21 10.00 Fair CLR 71.6 53.6 53% 30.12 0.0
03 14:35 E 8 G 18 10.00 Fair CLR 71.6 53.6 53% 30.12 0.0
03 14:15 E 12 10.00 Fair CLR 71.6 53.6 53% 30.12 0.0
03 13:55 E 10 G 17 10.00 Partly Cloudy SCT050 71.6 53.6 53% 30.13 0.0
03 13:35 E 12 10.00 Partly Cloudy SCT034 SCT042 69.8 53.6 57% 30.13 0.0
03 13:15 NE 10 10.00 Partly Cloudy SCT034 SCT042 69.8 53.6 57% 30.13 0.0
03 12:55 NE 10 10.00 Partly Cloudy SCT031 SCT043 69.8 53.6 57% 30.14 0.0
03 12:35 NE 7 10.00 Partly Cloudy SCT033 SCT043 69.8 53.6 57% 30.14 0.0
03 12:15 NE 13 10.00 Fair CLR 69.8 53.6 57% 30.14 0.0
03 11:55 NE 15 10.00 Fair CLR 69.8 53.6 57% 30.13 0.0
03 11:35 NE 13 10.00 Fair CLR 69.8 53.6 57% 30.14 0.0
03 11:15 NE 14 10.00 Partly Cloudy SCT030 68 51.8 56% 30.14 0.0
03 10:35 NE 14 10.00 Mostly Cloudy BKN024 BKN032 BKN048 68 53.6 60% 30.13 0.0
03 10:15 NE 12 10.00 Mostly Cloudy SCT022 BKN035 BKN042 66.2 55.4 68% 30.13 0.0
03 09:55 N 10 10.00 Mostly Cloudy BKN017 BKN025 64.4 55.4 73% 30.12 0.0
03 09:35 N 7 10.00 Mostly Cloudy BKN017 64.4 57.2 78% 30.11 0.0
03 09:15 N 9 10.00 Partly Cloudy SCT014 SCT019 64.4 57.2 78% 30.1 0.0
03 08:55 N 8 10.00 Partly Cloudy SCT013 62.6 57.2 83% 30.1 0.0
03 08:35 N 10 10.00 Fair CLR 60.8 57.2 88% 30.1 0.0
03 08:15 N 9 10.00 Fair CLR 60.8 55.4 83% 30.1 0.0
03 07:55 N 9 10.00 Partly Cloudy SCT013 59 55.4 88% 30.09 0.0
03 07:35 N 8 10.00 Partly Cloudy SCT013 57.2 53.6 88% 30.09 0.0
03 07:15 N 8 10.00 Partly Cloudy SCT010 57.2 55.4 94% 30.08 0.0
03 06:55 N 8 10.00 Partly Cloudy SCT010 57.2 55.4 94% 30.08 0.0
03 06:35 N 9 10.00 Fair CLR 57.2 53.6 88% 30.06 0.0
03 06:15 N 8 10.00 Fair CLR 57.2 53.6 88% 30.06 0.0
03 05:55 NW 7 10.00 Fair CLR 57.2 55.4 94% 30.06 0.0
03 05:35 NW 7 10.00 Partly Cloudy SCT005 57.2 55.4 94% 30.04 0.0
03 05:15 NW 7 10.00 Partly Cloudy SCT005 57.2 55.4 94% 30.04 0.0
03 04:55 N 6 10.00 Partly Cloudy SCT007 57.2 55.4 94% 30.04 0.0
03 04:35 NW 7 10.00 Fair CLR 57.2 55.4 94% 30.04 0.0
03 04:15 N 6 10.00 Fair CLR 57.2 55.4 94% 30.03 0.0
03 03:55 NW 6 10.00 Fair CLR 57.2 55.4 94% 30.04 0.0
03 03:35 N 8 10.00 Fair CLR 59 55.4 88% 30.03 0.0
03 03:15 NW 8 10.00 Fair CLR 59 55.4 88% 30.03 0.0
03 02:55 NW 8 10.00 Partly Cloudy SCT007 59 57.2 94% 30.03 0.0
03 02:35 NW 9 10.00 Overcast BKN007 OVC011 59 57.2 94% 30.02 0.0
03 02:15 NW 7 10.00 Mostly Cloudy BKN009 59 57.2 94% 30.01 0.0
03 01:55 N 7 10.00 Partly Cloudy SCT007 60.8 57.2 88% 30.01 0.0
03 01:35 N 7 10.00 Fair CLR 60.8 57.2 88% 30.01 0.0
03 01:15 N 5 10.00 Fair CLR 60.8 57.2 88% 30.01 0.0
03 00:55 N 7 10.00 Partly Cloudy SCT008 60.8 57.2 88% 30 0.0
03 00:35 N 6 10.00 Partly Cloudy SCT010 SCT015 60.8 57.2 88% 30 0.0
03 00:15 N 8 10.00 Mostly Cloudy SCT010 BKN015 62.6 59 88% 29.99 0.0
02 23:55 N 7 10.00 Partly Cloudy SCT010 SCT018 62.6 59 88% 29.99 0.0
02 23:35 N 6 10.00 Overcast BKN010 OVC018 62.6 59 88% 29.98 0.0
02 23:15 N 9 10.00 Mostly Cloudy BKN010 BKN018 BKN025 62.6 59 88% 29.98 0.0
02 22:55 N 9 10.00 Mostly Cloudy BKN025 62.6 57.2 83% 29.98 0.0
02 22:35 N 9 10.00 Mostly Cloudy BKN022 BKN028 62.6 57.2 83% 29.97 0.0
02 22:15 N 7 10.00 Mostly Cloudy BKN024 62.6 57.2 83% 29.96 0.0
02 21:55 N 9 10.00 Mostly Cloudy SCT014 BKN024 BKN036 62.6 57.2 83% 29.95 0.0
02 21:35 N 10 10.00 Mostly Cloudy SCT013 BKN029 BKN036 62.6 57.2 83% 29.95 0.0
02 21:15 N 7 10.00 Overcast SCT022 OVC030 62.6 57.2 83% 29.94 0.0
02 20:55 N 10 10.00 Overcast SCT012 OVC019 60.8 59 94% 29.93 0.0
Date Time (edt) Wind (mph) Vis. (mi.) Weather Sky Cond. Air Dwpt Max. Min. Relative Humidity Wind Chill (°F) Heat Index (°F) altimeter (in) sea level (mb) 1 hr 3 hr 6 hr
6 hour
Temperature (ºF) Pressure Precipitation (in)